Terminal Aerodrome Forecast
Issued by NWS

Home | Current Version | Previous Version | Text Only | Print | Product List | Glossary Off
Versions: 1 2 3 4 5 6 7 8 9 10 11 12 13 14 15 16 17 18 19 20 21 22 23 24 25 26 27

000
FTUS43 KGRB 281306 AAA
TAFMTW
TAF AMD
KMTW 281306Z 2813/2912 35005KT P6SM SCT100
     FM281700 03008G15KT P6SM FEW100 SCT200
     FM282300 04007KT P6SM SCT100 SCT200=

USA.gov is the U.S. government's official web portal to all federal, state and local government web resources and services.